WetterOnline ( https://www.wetteronline.de )

Wetter aktuell Ghedi

Aktuelles Wetter: Ghedi (97m)

6-stündlich | Neueste Meldungen
Ortszeit Temperatur Wetter
Mi, 24.04. 20:00 16.6° C wolkig
Mi, 24.04. 14:00 19.2° C wolkig
Mi, 24.04. 8:00 14.4° C bewölkt
Mi, 24.04. 2:00 14.0° C wolkig
Di, 23.04. 20:00 14.0° C wolkig
Di, 23.04. 14:00 15.0° C wolkig
Di, 23.04. 8:00 13.2° C leichter Regen
Di, 23.04. 2:00 15.0° C leichter Regen
Ortszeit Temperatur Wetter
Do, 25.04. 1:00 15.8° C leicht bewölkt
Do, 25.04. 0:55 16° C bewölkt
Do, 25.04. 0:00 15.0° C wolkig
Mi, 24.04. 23:55 15° C leicht bewölkt
Mi, 24.04. 23:00 16.0° C wolkig
Mi, 24.04. 22:55 16° C leicht bewölkt
Mi, 24.04. 22:00 16.0° C wolkig
Mi, 24.04. 21:55 16° C leicht bewölkt
Mi, 24.04. 21:00 16.5° C wolkig
Ortszeit Relative Feuchte Sichtweite
Mi, 24.04. 20:00 87% 10 km
Mi, 24.04. 14:00 68% 10 km
Mi, 24.04. 8:00 87% 10 km
Mi, 24.04. 2:00 87% 10 km
Di, 23.04. 20:00 86% 6 km
Di, 23.04. 14:00 82% 5.0 km
Di, 23.04. 8:00 88% 4.0 km
Di, 23.04. 2:00 81% 8 km
Ortszeit Relative Feuchte Sichtweite
Do, 25.04. 1:00 86% 10 km
Do, 25.04. 0:55 82% >10 km
Do, 25.04. 0:00 85% 10 km
Mi, 24.04. 23:55 88% >10 km
Mi, 24.04. 23:00 85% 10 km
Mi, 24.04. 22:55 82% >10 km
Mi, 24.04. 22:00 85% 10 km
Mi, 24.04. 21:55 88% >10 km
Mi, 24.04. 21:00 87% 10 km
Ortszeit Niederschlagsmenge Niederschlagsart
Mi, 24.04. 20:00 15 l/m2 in 12 Std. Gewitter, Regen
Mi, 24.04. 14:00 0.0 l/m2 in 6 Std. -
Mi, 24.04. 8:00 3 l/m2 in 12 Std. Regen
Mi, 24.04. 2:00 2 l/m2 in 6 Std. Regen
Di, 23.04. 20:00 8 l/m2 in 12 Std. Regen
Di, 23.04. 14:00 3 l/m2 in 6 Std. Regen
Di, 23.04. 8:00 5 l/m2 in 12 Std. Regen
Di, 23.04. 2:00 0.4 l/m2 in 6 Std. -
Ortszeit Niederschlagsmenge Niederschlagsart
Do, 25.04. 1:00 keine Meldung -
Do, 25.04. 0:55 keine Meldung -
Do, 25.04. 0:00 keine Meldung -
Mi, 24.04. 23:55 keine Meldung -
Mi, 24.04. 23:00 keine Meldung -
Mi, 24.04. 22:55 keine Meldung -
Mi, 24.04. 22:00 keine Meldung -
Mi, 24.04. 21:55 keine Meldung -
Mi, 24.04. 21:00 keine Meldung -
Ortszeit Stärke Spitze Richtung
km/h Bft. km/h Grad Sektor
Mi, 24.04. 20:00 6 1 - 100° O
Mi, 24.04. 14:00 11 2 - 120° SO
Mi, 24.04. 8:00 15 3 - 80° O
Mi, 24.04. 2:00 20 4 - 70° O
Di, 23.04. 20:00 17 3 - 60° NO
Di, 23.04. 14:00 24 4 - 80° O
Di, 23.04. 8:00 22 4 - 60° NO
Di, 23.04. 2:00 26 4 - 80° O
Ortszeit Stärke Spitze Richtung
km/h Bft. km/h Grad Sektor
Do, 25.04. 1:00 7 2 - 60° NO
Do, 25.04. 0:55 7 2 - 60° NO
Do, 25.04. 0:00 9 2 - 80° O
Mi, 24.04. 23:55 9 2 - 80° O
Mi, 24.04. 23:00 13 3 - 70° O
Mi, 24.04. 22:55 13 3 - 70° O
Mi, 24.04. 22:00 9 2 - 80° O
Mi, 24.04. 21:55 9 2 - 80° O
Mi, 24.04. 21:00 7 2 - 100° O
Ortszeit Untergrenze Bedeckung Gattung
total tief tief mittel hoch
Mi, 24.04. 20:00 1500 m 7/8 3/8 Sc Ac -
Mi, 24.04. 14:00 1050 m 7/8 2/8 Cu As -
Mi, 24.04. 8:00 900 m 7/8 2/8 Sc Ac -
Mi, 24.04. 2:00 600 m 7/8 3/8 Sc Ac -
Di, 23.04. 20:00 600 m 8/8 6/8 Cu Ac -
Di, 23.04. 14:00 810 m 8/8 6/8 Cu As -
Di, 23.04. 8:00 840 m 8/8 8/8 Cu - -
Di, 23.04. 2:00 1050 m 8/8 8/8 Cu - -
Ortszeit Bedeckungsgrad in Achtel und Wolkenuntergrenze
Do, 25.04. 1:00 5(2100m)
Do, 25.04. 0:55 5-7(2100m)
Do, 25.04. 0:00 2(1500m) 4(2100m)
Mi, 24.04. 23:55 1-2(1500m) 3-4(2100m)
Mi, 24.04. 23:00 2(1500m) 4(2100m)
Mi, 24.04. 22:55 1-2(1500m) 3-4(2100m)
Mi, 24.04. 22:00 3(1500m) 4(2100m)
Mi, 24.04. 21:55 3-4(1500m) 3-4(2100m)
Mi, 24.04. 21:00 3(1500m) 4(2100m)
Ortszeit Luftdruck NN (hPa) Tendenz (hPa in 3 Std.)
Mi, 24.04. 20:00 1014 + 0,3
Mi, 24.04. 14:00 1013 + 0,3
Mi, 24.04. 8:00 1011 + 2,0
Mi, 24.04. 2:00 1008 + 1,3
Di, 23.04. 20:00 1005 + 0,5
Di, 23.04. 14:00 1004 + 0,1
Di, 23.04. 8:00 1004 - 0,7
Di, 23.04. 2:00 1007 - 1,8
Ortszeit Luftdruck NN (hPa) Tendenz (hPa in 3 Std.)
Do, 25.04. 1:00 1016 + 0,9
Do, 25.04. 0:55 1015 keine Meldung
Do, 25.04. 0:00 1016 + 1,4
Mi, 24.04. 23:55 1015 keine Meldung
Mi, 24.04. 23:00 1015 + 1,4
Mi, 24.04. 22:55 1015 keine Meldung
Mi, 24.04. 22:00 1015 + 1,0
Mi, 24.04. 21:55 1014 keine Meldung
Mi, 24.04. 21:00 1014 + 0,5
Ortszeit Schneehöhe (cm)
Mi, 24.04. 20:00 -
Mi, 24.04. 14:00 -
Mi, 24.04. 8:00 0
Mi, 24.04. 2:00 -
Di, 23.04. 20:00 -
Di, 23.04. 14:00 -
Di, 23.04. 8:00 0
Di, 23.04. 2:00 -
Ortszeit Schneehöhe (cm)
Do, 25.04. 1:00 -
Do, 25.04. 0:55 -
Do, 25.04. 0:00 -
Mi, 24.04. 23:55 -
Mi, 24.04. 23:00 -
Mi, 24.04. 22:55 -
Mi, 24.04. 22:00 -
Mi, 24.04. 21:55 -
Mi, 24.04. 21:00 -
Link zu dieser Seite / Seite empfehlen

Das Wetter in ...